Time;durP1;ratioP1;P1;durP2;ratioP2;P2;SDS_P1;SDS_P2;PMS_P1;PMS_P2;Temp;Humidity;BMP_temperature;BMP_pressure;BME280_temperature;BME280_humidity;BME280_pressure;Samples;Min_cycle;Max_cycle;Signal;HPM_P1;HPM_P2
2022/03/21 00:00:32;;;;;;;27.25;23.35;;;;;;;1.41;77.50;102970.53;5056148;28;20087;-35
2022/03/21 00:02:57;;;;;;;29.77;24.65;;;;;;;1.47;77.81;102977.22;5056491;28;20025;-35
2022/03/21 00:05:23;;;;;;;29.87;23.77;;;;;;;1.59;77.25;102994.91;5055780;28;20039;-35
2022/03/21 00:07:49;;;;;;;31.63;24.45;;;;;;;1.57;77.48;102990.69;5055759;28;20090;-35
2022/03/21 00:10:15;;;;;;;28.58;24.38;;;;;;;1.46;77.45;102968.34;5055530;28;20036;-35
2022/03/21 00:12:40;;;;;;;28.40;24.05;;;;;;;1.57;77.73;102999.53;5056222;28;20450;-34
2022/03/21 00:15:09;;;;;;;28.97;24.33;;;;;;;1.52;76.82;103004.38;5056281;28;20039;-35
2022/03/21 00:17:35;;;;;;;29.02;25.00;;;;;;;1.34;75.96;103000.47;5055749;28;20454;-35
2022/03/21 00:20:01;;;;;;;28.40;24.98;;;;;;;1.31;77.41;102992.69;5055770;28;20075;-35
2022/03/21 00:22:26;;;;;;;27.47;23.80;;;;;;;1.30;76.47;102999.84;5056255;28;20025;-35
2022/03/21 00:24:52;;;;;;;28.93;24.83;;;;;;;1.26;77.15;103006.38;5055742;28;20256;-35
2022/03/21 00:27:18;;;;;;;30.90;26.45;;;;;;;1.19;77.50;103011.31;5055938;28;20025;-35
2022/03/21 00:29:43;;;;;;;31.00;25.93;;;;;;;1.19;77.97;103007.81;5055345;28;20029;-34
2022/03/21 00:32:09;;;;;;;31.43;26.10;;;;;;;1.12;77.53;103010.06;5055454;28;20274;-34
2022/03/21 00:34:35;;;;;;;29.27;26.13;;;;;;;1.09;78.07;103018.31;5055792;28;20029;-34
2022/03/21 00:37:00;;;;;;;30.10;25.47;;;;;;;1.02;78.38;103014.41;5055439;28;20051;-34
2022/03/21 00:39:25;;;;;;;31.23;26.63;;;;;;;0.97;78.81;103003.25;5055126;28;20112;-34
2022/03/21 00:41:51;;;;;;;30.87;25.70;;;;;;;1.04;78.26;103015.16;5055334;28;20032;-35
2022/03/21 00:44:16;;;;;;;33.80;25.20;;;;;;;1.04;77.96;103028.47;5056128;28;20025;-34
2022/03/21 00:46:42;;;;;;;31.25;25.95;;;;;;;0.96;78.14;103006.88;5055216;28;20116;-34
2022/03/21 00:49:11;;;;;;;30.17;25.87;;;;;;;1.03;78.10;103016.13;5055284;28;20040;-35
2022/03/21 00:51:37;;;;;;;30.48;25.20;;;;;;;0.84;78.36;102991.81;5055693;28;20132;-34
2022/03/21 00:54:03;;;;;;;29.45;26.10;;;;;;;0.98;77.90;103018.28;5053584;28;20124;-34
2022/03/21 00:56:28;;;;;;;31.67;25.77;;;;;;;1.01;78.26;103016.22;5055705;28;20056;-34
2022/03/21 00:58:53;;;;;;;27.87;24.37;;;;;;;0.96;78.23;103020.19;5055320;28;20087;-34
2022/03/21 01:01:19;;;;;;;30.03;26.43;;;;;;;0.92;78.14;103018.72;5055094;28;20033;-34
2022/03/21 01:03:44;;;;;;;31.40;26.80;;;;;;;0.88;78.60;103015.47;5055365;28;20021;-34
2022/03/21 01:06:09;;;;;;;28.97;25.23;;;;;;;0.84;79.26;103015.81;5054488;28;20025;-34
2022/03/21 01:08:35;;;;;;;30.20;25.23;;;;;;;0.87;78.53;103031.53;5054948;28;20032;-41
2022/03/21 01:11:00;;;;;;;30.77;25.07;;;;;;;0.87;78.88;103023.53;5053903;28;20052;-34
2022/03/21 01:13:25;;;;;;;27.93;23.97;;;;;;;0.66;77.94;103016.19;5055040;28;20065;-34
2022/03/21 01:15:51;;;;;;;32.07;26.30;;;;;;;0.79;78.95;103023.28;5054552;28;20025;-35
2022/03/21 01:18:16;;;;;;;28.63;25.53;;;;;;;0.72;79.16;103004.22;5055352;28;20113;-34
2022/03/21 01:20:41;;;;;;;28.70;24.70;;;;;;;0.79;79.34;103032.13;5055444;28;20357;-34
2022/03/21 01:23:07;;;;;;;29.63;25.93;;;;;;;0.79;79.35;103036.59;5054398;28;20037;-34
2022/03/21 01:25:32;;;;;;;24.77;21.30;;;;;;;0.86;80.64;103028.03;5054622;28;20033;-34
2022/03/21 01:27:57;;;;;;;26.37;22.67;;;;;;;0.90;81.17;103033.97;5054580;28;20028;-34
2022/03/21 01:30:23;;;;;;;26.00;22.90;;;;;;;0.83;80.35;103016.75;5053342;28;20080;-34
2022/03/21 01:32:48;;;;;;;32.70;26.17;;;;;;;0.82;79.91;103031.03;5054934;28;20032;-35
2022/03/21 01:35:16;;;;;;;30.20;24.87;;;;;;;0.81;80.49;103016.00;5054905;28;20033;-34
2022/03/21 01:37:42;;;;;;;29.30;25.67;;;;;;;0.82;80.25;103026.53;5053501;28;20515;-34
2022/03/21 01:40:10;;;;;;;33.13;26.65;;;;;;;0.90;80.36;103037.50;5054825;28;20029;-34
2022/03/21 01:42:41;;;;;;;30.40;26.45;;;;;;;0.89;80.99;103027.81;5052938;28;20378;-34
2022/03/21 01:45:07;;;;;;;31.60;26.27;;;;;;;0.91;81.11;103035.69;5053785;28;20036;-34
2022/03/21 01:47:33;;;;;;;;;;;;;;;1.04;79.55;103036.47;5054977;28;20029;-35
2022/03/21 01:49:59;;;;;;;29.67;25.60;;;;;;;0.88;79.98;103035.88;5054000;28;20007;-34
2022/03/21 01:52:24;;;;;;;29.40;25.40;;;;;;;0.92;81.17;103045.38;5053784;28;20064;-34
2022/03/21 01:57:34;;;;;;;33.88;27.30;;;;;;;0.61;80.46;103013.00;5054253;28;20071;-35
2022/03/21 02:00:00;;;;;;;29.67;25.75;;;;;;;0.79;80.21;103036.59;5054718;28;20049;-34
2022/03/21 02:02:25;;;;;;;31.25;26.98;;;;;;;0.72;80.19;103038.84;5053912;28;20099;-34
2022/03/21 02:04:51;;;;;;;31.07;26.43;;;;;;;0.63;79.04;103026.19;5054290;28;20032;-35
2022/03/21 02:07:17;;;;;;;30.93;25.70;;;;;;;0.61;78.57;103038.78;5053790;28;20165;-35
2022/03/21 02:09:43;;;;;;;32.47;26.83;;;;;;;0.45;79.98;103045.25;5053762;28;20075;-35
2022/03/21 02:12:08;;;;;;;29.95;25.73;;;;;;;0.43;80.82;103025.84;5053753;28;20025;-34
2022/03/21 02:14:39;;;;;;;29.90;23.80;;;;;;;0.51;82.34;103038.63;5053629;28;20511;-34
2022/03/21 02:17:04;;;;;;;29.65;26.25;;;;;;;0.56;81.85;103031.13;5054293;28;20427;-34
2022/03/21 02:19:32;;;;;;;31.08;26.20;;;;;;;0.55;81.06;103029.44;5053818;28;20025;-34
2022/03/21 02:21:57;;;;;;;28.23;24.23;;;;;;;0.49;81.79;103025.41;5053455;28;20036;-34
2022/03/21 02:24:33;;;;;;;27.20;23.57;;;;;;;0.58;81.89;103039.00;5054190;28;20044;-34
2022/03/21 02:27:00;;;;;;;31.83;26.27;;;;;;;0.52;81.31;103042.97;5054041;28;20025;-34
2022/03/21 02:29:27;;;;;;;28.83;25.70;;;;;;;0.43;81.83;103030.31;5053246;28;20029;-34
2022/03/21 02:31:57;;;;;;;29.50;26.30;;;;;;;0.48;81.53;103041.47;5053373;28;20040;-34
2022/03/21 02:34:25;;;;;;;30.30;25.98;;;;;;;0.38;81.57;103032.47;5052901;28;20025;-34
2022/03/21 02:36:54;;;;;;;28.60;25.50;;;;;;;0.41;81.69;103045.56;5052874;28;20369;-34
2022/03/21 02:39:20;;;;;;;29.02;24.20;;;;;;;0.43;82.77;103035.66;5052913;28;20473;-34
2022/03/21 02:41:46;;;;;;;31.58;27.02;;;;;;;0.43;81.74;103051.63;5053367;28;20028;-35
2022/03/21 02:44:11;;;;;;;31.37;26.17;;;;;;;0.48;82.95;103041.47;5053550;28;20017;-34
2022/03/21 02:46:37;;;;;;;30.87;27.30;;;;;;;0.41;83.10;103043.75;5053540;28;20115;-34
2022/03/21 02:49:02;;;;;;;;;;;;;;;0.54;81.68;103038.41;5053186;28;20120;-34
2022/03/21 02:51:31;;;;;;;32.90;27.23;;;;;;;0.33;82.85;103029.28;5053132;28;20361;-34
2022/03/21 02:53:56;;;;;;;34.17;25.60;;;;;;;0.39;82.78;103039.47;5053111;28;20040;-34
2022/03/21 02:56:22;;;;;;;31.93;27.67;;;;;;;0.44;82.82;103042.66;5052973;28;20047;-34
2022/03/21 02:58:48;;;;;;;28.50;22.87;;;;;;;0.48;84.54;103041.47;5052958;28;20033;-35
2022/03/21 03:01:16;;;;;;;33.30;27.17;;;;;;;0.33;83.59;103048.75;5053351;28;20028;-34
2022/03/21 03:03:42;;;;;;;27.55;24.55;;;;;;;0.37;84.02;103044.94;5052620;28;20374;-34
2022/03/21 03:06:08;;;;;;;28.98;25.70;;;;;;;0.31;83.20;103037.38;5052279;28;20416;-34
2022/03/21 03:08:34;;;;;;;31.20;27.20;;;;;;;0.27;83.09;103038.56;5052812;28;20025;-34
2022/03/21 03:11:00;;;;;;;28.73;23.92;;;;;;;0.34;84.46;103037.19;5052868;28;20024;-34
2022/03/21 03:13:25;;;;;;;26.50;23.37;;;;;;;0.34;84.78;103031.84;5053027;28;20032;-34
2022/03/21 03:15:51;;;;;;;28.47;24.10;;;;;;;0.34;84.67;103030.97;5053017;28;20028;-34
2022/03/21 03:18:17;;;;;;;31.33;27.00;;;;;;;0.32;84.12;103032.91;5052917;28;20032;-34
2022/03/21 03:20:50;;;;;;;28.70;25.23;;;;;;;0.35;84.62;103033.56;5052678;28;20040;-34
2022/03/21 03:23:18;;;;;;;26.65;22.35;;;;;;;0.44;85.53;103042.66;5052371;28;20025;-34
2022/03/21 03:25:43;;;;;;;29.70;25.92;;;;;;;0.41;84.85;103043.75;5052309;28;20033;-34
2022/03/21 03:28:09;;;;;;;31.23;26.47;;;;;;;0.47;85.67;103050.44;5052328;28;20120;-34
2022/03/21 03:30:35;;;;;;;38.77;28.83;;;;;;;0.42;84.64;103036.63;5053008;28;20037;-34
2022/03/21 03:33:01;;;;;;;31.70;27.95;;;;;;;0.30;84.41;103034.84;5052604;28;20473;-34
2022/03/21 03:35:27;;;;;;;34.97;28.58;;;;;;;0.31;84.86;103041.88;5056694;28;20080;-34
2022/03/21 03:37:53;;;;;;;32.15;27.77;;;;;;;0.25;85.04;103028.03;5056621;28;20072;-35
2022/03/21 03:40:19;;;;;;;28.50;23.87;;;;;;;0.41;85.96;103045.56;5057357;28;20029;-34
2022/03/21 03:42:44;;;;;;;27.67;24.15;;;;;;;0.39;85.17;103044.81;5056444;28;20036;-35
2022/03/21 03:45:10;;;;;;;33.70;27.30;;;;;;;0.34;84.88;103042.50;5056483;28;20029;-35
2022/03/21 03:47:36;;;;;;;27.17;24.17;;;;;;;0.46;86.50;103040.75;5056146;28;20032;-34
2022/03/21 03:50:02;;;;;;;29.63;25.80;;;;;;;0.41;87.04;103030.44;5056901;28;20025;-35
2022/03/21 03:52:27;;;;;;;32.58;27.10;;;;;;;0.43;85.39;103043.63;5055949;28;20494;-35
2022/03/21 03:54:53;;;;;;;32.13;28.63;;;;;;;0.31;85.22;103037.38;5056892;28;20045;-34
2022/03/21 03:57:20;;;;;;;32.53;27.53;;;;;;;0.37;85.87;103044.94;5056012;28;20025;-34
2022/03/21 03:59:45;;;;;;;27.90;23.95;;;;;;;0.45;86.87;103045.25;5056564;28;20139;-34
2022/03/21 04:02:10;;;;;;;31.07;26.53;;;;;;;0.38;85.13;103059.09;5056027;28;20135;-34
2022/03/21 04:04:36;;;;;;;31.93;26.60;;;;;;;0.28;84.52;103050.91;5056444;28;20032;-34
2022/03/21 04:07:02;;;;;;;32.45;26.13;;;;;;;0.33;84.76;103050.56;5056184;28;20452;-34
2022/03/21 04:09:27;;;;;;;29.55;25.30;;;;;;;0.19;85.00;103041.75;5056309;28;20021;-35
2022/03/21 04:11:53;;;;;;;28.97;24.07;;;;;;;0.32;85.84;103057.72;5055674;28;20171;-35
2022/03/21 04:14:18;;;;;;;33.13;26.90;;;;;;;0.27;85.36;103057.19;5056283;28;20032;-34
2022/03/21 04:16:44;;;;;;;31.83;27.30;;;;;;;0.25;84.51;103057.31;5055964;28;20041;-35
2022/03/21 04:19:11;;;;;;;28.85;25.08;;;;;;;0.23;86.54;103042.41;5054573;28;20473;-34
2022/03/21 04:21:36;;;;;;;31.20;27.02;;;;;;;0.23;86.29;103061.88;5055847;28;20025;-34
2022/03/21 04:24:02;;;;;;;34.63;27.97;;;;;;;0.06;86.86;103025.00;5055809;28;20029;-34
2022/03/21 04:26:27;;;;;;;31.43;26.33;;;;;;;0.27;86.10;103056.34;5056425;28;20287;-34
2022/03/21 04:28:55;;;;;;;34.53;28.57;;;;;;;0.23;86.03;103066.34;5055884;28;20393;-34
2022/03/21 04:31:20;;;;;;;28.98;23.27;;;;;;;0.34;87.83;103068.25;5056442;28;20051;-34
2022/03/21 04:33:45;;;;;;;30.10;25.87;;;;;;;0.29;87.39;103060.59;5056152;28;20513;-34
2022/03/21 04:36:13;;;;;;;32.43;26.30;;;;;;;0.15;85.87;103047.44;5055975;28;20025;-34
2022/03/21 04:38:38;;;;;;;32.47;27.75;;;;;;;0.07;84.77;103052.44;5055861;28;20108;-34
2022/03/21 04:41:04;;;;;;;29.30;25.33;;;;;;;-0.01;83.72;103059.13;5055850;28;20427;-34
2022/03/21 04:43:29;;;;;;;33.90;28.07;;;;;;;0.03;86.00;103058.94;5055459;28;20083;-34
2022/03/21 04:45:54;;;;;;;34.33;27.20;;;;;;;-0.09;84.74;103058.84;5053475;28;20071;-34
2022/03/21 04:48:20;;;;;;;32.53;26.70;;;;;;;-0.07;85.01;103064.91;5056176;28;20082;-34
2022/03/21 04:50:46;;;;;;;30.13;25.25;;;;;;;-0.12;86.05;103052.88;5055594;28;20024;-34
2022/03/21 04:53:11;;;;;;;31.98;26.65;;;;;;;-0.08;85.03;103065.00;5053956;28;20039;-34
2022/03/21 04:55:38;;;;;;;28.83;25.40;;;;;;;-0.10;86.64;103064.25;5055836;28;20359;-34
2022/03/21 04:58:03;;;;;;;30.45;25.52;;;;;;;-0.03;87.50;103069.06;5055140;28;20033;-34
2022/03/21 05:00:29;;;;;;;31.97;26.60;;;;;;;0.07;88.71;103069.25;5053781;28;20032;-35
2022/03/21 05:02:55;;;;;;;32.13;26.70;;;;;;;0.05;89.08;103073.84;5054780;28;20036;-34
2022/03/21 05:05:20;;;;;;;35.63;29.45;;;;;;;0.00;89.73;103057.34;5054632;28;20033;-34
2022/03/21 05:07:49;;;;;;;31.57;26.90;;;;;;;0.00;89.00;103065.34;5054982;28;20036;-34
2022/03/21 05:10:15;;;;;;;28.15;24.08;;;;;;;0.04;nan;103072.13;5055138;28;20025;-34
2022/03/21 05:12:40;;;;;;;30.50;23.40;;;;;;;0.11;90.54;103073.41;5054868;28;20488;-34
2022/03/21 05:15:07;;;;;;;30.60;24.93;;;;;;;-0.11;88.32;103065.22;5055580;28;20259;-34
2022/03/21 05:17:34;;;;;;;32.95;25.52;;;;;;;-0.10;87.26;103082.88;5054782;28;20029;-34
2022/03/21 05:19:59;;;;;;;32.05;25.40;;;;;;;-0.09;88.79;103087.25;5055165;28;20028;-34
2022/03/21 05:22:25;;;;;;;33.95;27.60;;;;;;;-0.13;87.54;103085.75;5055013;28;20401;-34
2022/03/21 05:35:57;;;;;;;29.27;24.73;;;;;;;0.08;90.13;103094.03;5055092;28;20134;-34
2022/03/21 05:38:26;;;;;;;31.80;25.92;;;;;;;0.02;88.23;103089.16;5054645;28;20033;-34
2022/03/21 05:40:56;;;;;;;28.35;23.55;;;;;;;0.06;89.99;103080.00;5054681;28;20029;-34
2022/03/21 05:43:22;;;;;;;28.80;23.45;;;;;;;0.13;91.17;103084.78;5054827;28;20071;-34
2022/03/21 05:45:49;;;;;;;34.13;26.08;;;;;;;0.15;90.93;103085.53;5053818;28;20436;-34
2022/03/21 05:50:59;;;;;;;31.42;25.25;;;;;;;0.15;89.96;103069.56;5054207;28;20053;-34
2022/03/21 05:53:24;;;;;;;33.93;25.83;;;;;;;0.14;88.82;103082.97;5054244;28;20106;-34
2022/03/21 05:55:50;;;;;;;28.77;22.90;;;;;;;0.29;90.37;103081.88;5054526;28;20064;-34
2022/03/21 05:58:15;;;;;;;31.65;25.33;;;;;;;0.16;88.44;103094.38;5052467;28;20039;-34
2022/03/21 06:00:41;;;;;;;28.07;23.37;;;;;;;0.27;90.04;103089.13;5053798;28;20094;-34
2022/03/21 06:03:08;;;;;;;33.63;23.73;;;;;;;0.12;87.80;103092.88;5053987;28;20039;-35
2022/03/21 06:05:35;;;;;;;29.67;24.13;;;;;;;0.20;89.91;103083.41;5053821;28;20287;-34
2022/03/21 06:08:00;;;;;;;30.02;25.05;;;;;;;0.29;90.43;103091.69;5053464;28;20033;-34
2022/03/21 06:10:25;;;;;;;28.57;22.70;;;;;;;0.21;91.14;103063.81;5054083;28;20579;-35
2022/03/21 06:12:51;;;;;;;31.37;23.80;;;;;;;0.44;91.57;103095.91;5054352;28;20025;-34
2022/03/21 06:15:16;;;;;;;30.77;23.67;;;;;;;0.45;91.56;103090.50;5054493;28;20131;-34
2022/03/21 06:17:43;;;;;;;35.37;26.07;;;;;;;0.52;91.01;103104.19;5054429;28;20495;-34
2022/03/21 06:20:11;;;;;;;27.30;23.00;;;;;;;0.46;91.43;103078.88;5053651;28;20262;-35
2022/03/21 06:22:37;;;;;;;32.08;25.70;;;;;;;0.32;89.53;103071.03;5053530;28;20036;-34
2022/03/21 06:25:04;;;;;;;30.55;23.75;;;;;;;0.63;90.01;103108.75;5053828;28;20037;-39
2022/03/21 06:27:30;;;;;;;29.70;23.60;;;;;;;0.72;91.50;103110.75;5053444;28;20397;-35
2022/03/21 06:29:55;;;;;;;29.40;24.10;;;;;;;0.83;91.50;103117.97;5053297;28;20036;-35
2022/03/21 06:32:21;;;;;;;24.97;22.27;;;;;;;1.02;92.17;103121.84;5053564;28;20036;-35
2022/03/21 06:34:47;;;;;;;31.95;25.10;;;;;;;0.98;91.51;103114.19;5053578;28;20027;-34
2022/03/21 06:37:13;;;;;;;30.92;24.13;;;;;;;1.10;91.73;103118.59;5051888;28;20401;-35
2022/03/21 06:39:38;;;;;;;34.55;26.60;;;;;;;1.00;90.30;103123.75;5053427;28;20028;-35
2022/03/21 06:42:04;;;;;;;29.00;22.67;;;;;;;1.13;91.51;103113.06;5053311;28;20059;-35
2022/03/21 06:44:29;;;;;;;26.55;22.52;;;;;;;1.11;89.94;103122.97;5053431;28;20025;-35
2022/03/21 06:46:57;;;;;;;27.75;23.27;;;;;;;1.10;88.75;103120.44;5053336;28;20021;-35
2022/03/21 06:49:27;;;;;;;29.45;23.73;;;;;;;1.17;90.08;103127.88;5052946;28;20119;-35
2022/03/21 06:51:53;;;;;;;27.90;23.50;;;;;;;1.29;91.36;103126.94;5054081;28;20037;-35
2022/03/21 06:54:18;;;;;;;28.55;24.75;;;;;;;1.36;91.47;103131.81;5053349;28;20055;-34
2022/03/21 06:56:43;;;;;;;29.37;24.13;;;;;;;1.42;89.66;103134.03;5052944;28;20396;-35
2022/03/21 06:59:09;;;;;;;24.73;21.17;;;;;;;1.62;91.96;103132.53;5053196;28;20116;-35
2022/03/21 07:01:36;;;;;;;35.60;27.50;;;;;;;1.69;93.16;103128.41;5051541;28;20040;-35
2022/03/21 07:04:01;;;;;;;37.38;27.23;;;;;;;1.83;93.77;103132.69;5052809;28;20036;-35
2022/03/21 07:06:26;;;;;;;34.10;28.90;;;;;;;1.92;94.96;103137.34;5052666;28;20393;-34
2022/03/21 07:08:52;;;;;;;51.53;34.20;;;;;;;2.01;97.81;103133.97;5052679;28;20117;-34
2022/03/21 07:11:19;;;;;;;47.47;31.13;;;;;;;2.15;99.30;103136.41;5051875;28;20024;-35
2022/03/21 07:13:45;;;;;;;46.58;29.05;;;;;;;2.24;97.36;103146.34;5052906;28;20025;-34
2022/03/21 07:16:15;;;;;;;42.47;30.73;;;;;;;2.37;97.95;103142.72;5051641;28;20033;-34
2022/03/21 07:18:42;;;;;;;37.63;29.13;;;;;;;2.48;97.50;103140.03;5052792;28;20060;-34
2022/03/21 07:21:07;;;;;;;33.60;26.63;;;;;;;2.61;96.74;103145.28;5052821;28;20033;-34
2022/03/21 07:23:32;;;;;;;35.70;27.97;;;;;;;2.72;96.55;103138.06;5052913;28;20526;-34
2022/03/21 07:25:58;;;;;;;36.93;28.80;;;;;;;2.84;97.45;103144.28;5052572;28;20025;-38
2022/03/21 07:28:23;;;;;;;34.73;29.97;;;;;;;3.02;98.29;103139.25;5052431;28;20047;-35
2022/03/21 07:30:48;;;;;;;34.60;27.27;;;;;;;3.13;97.54;103139.22;5052916;28;20032;-34
2022/03/21 07:33:13;;;;;;;33.43;27.93;;;;;;;3.27;97.91;103141.63;5052785;28;20098;-34
2022/03/21 07:35:39;;;;;;;32.23;28.50;;;;;;;3.40;98.29;103140.59;5053307;28;20048;-34
2022/03/21 07:38:05;;;;;;;35.10;28.20;;;;;;;3.49;98.86;103132.63;5052689;28;20021;-35
2022/03/21 07:40:31;;;;;;;32.13;25.55;;;;;;;3.60;98.44;103132.56;5053264;28;20082;-35
2022/03/21 07:42:56;;;;;;;33.27;25.83;;;;;;;3.82;98.69;103141.47;5052729;28;20050;-35
2022/03/21 07:48:06;;;;;;;27.25;23.13;;;;;;;4.14;97.81;103142.22;5052654;28;20094;-35
2022/03/21 07:50:31;;;;;;;26.00;21.83;;;;;;;4.28;97.44;103149.06;5052285;28;20033;-34
2022/03/21 07:52:59;;;;;;;27.27;22.85;;;;;;;4.45;96.76;103142.25;5052187;28;20047;-35
2022/03/21 07:55:26;;;;;;;28.23;21.45;;;;;;;4.55;95.68;103135.09;5053190;28;20077;-34
2022/03/21 07:57:51;;;;;;;24.50;20.77;;;;;;;4.77;95.21;103138.53;5050670;28;20091;-35
2022/03/21 08:00:17;;;;;;;23.37;19.07;;;;;;;4.92;94.10;103147.91;5053211;28;20060;-35
2022/03/21 08:02:43;;;;;;;22.73;20.17;;;;;;;5.07;93.94;103151.03;5052632;28;20033;-34
2022/03/21 08:05:09;;;;;;;21.15;18.77;;;;;;;5.16;94.30;103134.09;5052322;28;20055;-34
2022/03/21 08:07:35;;;;;;;23.35;18.25;;;;;;;5.41;92.94;103149.66;5052483;28;20406;-34
2022/03/21 08:10:03;;;;;;;22.10;17.02;;;;;;;5.55;92.18;103144.84;5052920;28;20025;-34
2022/03/21 08:12:29;;;;;;;24.30;18.02;;;;;;;5.72;92.03;103151.38;5052245;28;20477;-35
2022/03/21 08:14:58;;;;;;;24.20;17.40;;;;;;;5.86;91.60;103151.78;5052558;28;20032;-35
2022/03/21 08:17:26;;;;;;;21.45;16.83;;;;;;;5.99;90.34;103153.31;5051699;28;20040;-35
2022/03/21 08:19:52;;;;;;;21.90;18.10;;;;;;;6.18;89.69;103155.97;5053957;28;20075;-35
2022/03/21 08:22:17;;;;;;;21.80;16.95;;;;;;;6.31;88.71;103153.81;5056155;28;20408;-35
2022/03/21 08:24:42;;;;;;;18.58;15.52;;;;;;;6.38;87.20;103143.31;5056027;28;20497;-35
2022/03/21 08:27:08;;;;;;;18.47;15.17;;;;;;;6.54;86.87;103148.94;5055429;28;20477;-35
2022/03/21 08:29:33;;;;;;;18.23;14.40;;;;;;;6.69;87.11;103157.34;5055346;28;20473;-35
2022/03/21 08:31:59;;;;;;;16.43;13.63;;;;;;;6.82;85.14;103155.13;5055772;28;20267;-35
2022/03/21 08:34:24;;;;;;;16.17;13.40;;;;;;;6.92;84.71;103150.53;5055413;28;20469;-35
2022/03/21 08:36:50;;;;;;;17.60;12.50;;;;;;;7.13;83.08;103155.66;5055597;28;20037;-34
2022/03/21 08:39:16;;;;;;;16.07;13.27;;;;;;;7.20;82.63;103153.22;5055531;28;20021;-35
2022/03/21 08:41:41;;;;;;;17.05;12.43;;;;;;;7.32;81.86;103148.44;5055777;28;20060;-35
2022/03/21 08:44:07;;;;;;;16.93;12.47;;;;;;;7.39;80.92;103139.59;5056039;28;20033;-34
2022/03/21 08:46:32;;;;;;;16.23;12.52;;;;;;;7.59;80.43;103152.91;5054626;28;20453;-35
2022/03/21 08:51:43;;;;;;;17.30;12.27;;;;;;;7.85;78.50;103147.56;5055274;28;20409;-35
2022/03/21 08:54:09;;;;;;;17.55;12.85;;;;;;;7.97;77.50;103152.53;5055053;28;20067;-35
2022/03/21 08:56:34;;;;;;;14.88;12.75;;;;;;;8.08;77.92;103142.50;5055344;28;20080;-34
2022/03/21 08:59:00;;;;;;;19.10;13.37;;;;;;;8.26;76.01;103141.44;5055096;28;20033;-35
2022/03/21 09:01:26;;;;;;;14.77;12.93;;;;;;;8.43;75.56;103141.56;5054055;28;20325;-35
2022/03/21 09:03:52;;;;;;;14.95;12.85;;;;;;;8.58;74.37;103141.78;5055059;28;20021;-35
2022/03/21 09:06:20;;;;;;;;;;;;;;;8.65;74.02;103137.47;5056153;28;20029;-35
2022/03/21 09:08:46;;;;;;;16.27;12.63;;;;;;;8.74;73.30;103140.03;5054985;28;19912;-35
2022/03/21 09:11:11;;;;;;;17.27;11.57;;;;;;;8.86;74.31;103135.16;5055244;28;20472;-35
2022/03/21 09:13:36;;;;;;;16.67;11.50;;;;;;;8.95;72.12;103139.59;5055163;28;20527;-34
2022/03/21 09:16:02;;;;;;;17.30;12.37;;;;;;;9.12;72.85;103139.63;5055295;28;20044;-35
2022/03/21 09:18:27;;;;;;;17.55;12.32;;;;;;;9.32;73.75;103137.44;5054826;28;20045;-35
2022/03/21 09:20:53;;;;;;;13.87;11.70;;;;;;;9.36;72.11;103123.44;5054887;28;20128;-35
2022/03/21 09:23:18;;;;;;;17.13;11.73;;;;;;;9.47;71.41;103133.09;5053645;28;20283;-35
2022/03/21 09:25:44;;;;;;;16.10;12.15;;;;;;;9.63;71.78;103133.09;5054648;28;20032;-35
2022/03/21 09:28:09;;;;;;;14.13;11.30;;;;;;;9.65;68.94;103130.22;5054690;28;20474;-35
2022/03/21 09:30:36;;;;;;;14.97;11.77;;;;;;;9.68;71.18;103119.94;5054700;28;20032;-35
2022/03/21 09:33:02;;;;;;;16.55;11.90;;;;;;;9.88;70.14;103120.41;5053771;28;20032;-35
2022/03/21 09:35:27;;;;;;;16.20;12.05;;;;;;;9.93;69.86;103128.84;5054299;28;20032;-35
2022/03/21 09:37:53;;;;;;;16.90;13.07;;;;;;;10.09;69.93;103117.16;5054391;28;20184;-34
2022/03/21 09:40:20;;;;;;;16.13;12.33;;;;;;;10.13;70.27;103125.78;5054459;28;20040;-34
2022/03/21 09:42:46;;;;;;;14.70;12.25;;;;;;;10.20;70.44;103110.53;5054061;28;20469;-34
2022/03/21 09:45:13;;;;;;;16.10;12.23;;;;;;;10.38;69.96;103124.72;5054655;28;20029;-36
2022/03/21 09:50:28;;;;;;;15.00;12.15;;;;;;;10.56;67.66;103117.22;5054546;28;20504;-34
2022/03/21 09:52:54;;;;;;;16.25;12.85;;;;;;;10.60;68.97;103108.75;5053459;28;20408;-35
2022/03/21 09:55:19;;;;;;;13.95;12.25;;;;;;;10.73;67.46;103109.84;5054625;28;20071;-35
2022/03/21 09:57:44;;;;;;;13.95;11.73;;;;;;;10.85;66.77;103115.72;5054585;28;20112;-35
2022/03/21 10:00:11;;;;;;;15.43;12.37;;;;;;;10.93;67.25;103115.69;5054697;28;20033;-36
2022/03/21 10:02:37;;;;;;;14.93;12.02;;;;;;;10.94;65.47;103114.66;5054759;28;20424;-34
2022/03/21 10:05:02;;;;;;;14.85;11.45;;;;;;;11.07;67.56;103116.78;5053419;28;20040;-34
2022/03/21 10:07:28;;;;;;;16.35;11.30;;;;;;;11.22;65.93;103109.56;5054003;28;20408;-34
2022/03/21 10:10:10;;;;;;;13.70;11.48;;;;;;;11.33;64.92;103094.78;5054393;28;20044;-35
2022/03/21 10:12:36;;;;;;;14.88;10.65;;;;;;;11.41;64.38;103102.81;5053382;28;20124;-35
2022/03/21 10:15:06;;;;;;;13.90;11.88;;;;;;;11.58;65.64;103107.09;5052319;28;20021;-34
2022/03/21 10:17:32;;;;;;;13.65;11.10;;;;;;;11.52;63.78;103093.44;5051977;28;20074;-34
2022/03/21 10:19:58;;;;;;;15.20;10.82;;;;;;;11.65;63.46;103076.53;5053721;28;20033;-34
2022/03/21 10:22:32;;;;;;;14.25;11.18;;;;;;;11.92;63.90;103092.22;5053519;28;20029;-34
2022/03/21 10:25:06;;;;;;;21.15;11.63;;;;;;;12.02;61.91;103100.94;5053468;28;20040;-41
2022/03/21 10:27:43;;;;;;;15.15;10.93;;;;;;;12.05;61.65;103087.03;5053947;28;20037;-34
2022/03/21 10:30:10;;;;;;;;;;;;;;;12.25;62.08;103100.00;5053699;28;20060;-35
2022/03/21 10:32:43;;;;;;;13.25;9.73;;;;;;;12.21;60.16;103083.28;5053090;28;19961;-35
2022/03/21 10:35:22;;;;;;;18.88;11.98;;;;;;;12.35;58.68;103090.56;5053226;28;20150;-36
2022/03/21 10:38:02;;;;;;;14.40;9.98;;;;;;;12.52;58.96;103082.22;5053594;28;20062;-35
2022/03/21 10:40:41;;;;;;;16.70;10.52;;;;;;;12.55;60.26;103062.84;5053344;28;20021;-36
2022/03/21 10:43:14;;;;;;;13.50;10.65;;;;;;;12.64;58.18;103064.41;5052962;28;20473;-36
2022/03/21 10:45:47;;;;;;;12.88;10.93;;;;;;;12.83;58.52;103077.38;5053440;28;20226;-35
2022/03/21 10:48:16;;;;;;;12.23;9.95;;;;;;;12.85;59.13;103072.59;5052599;28;20037;-35
2022/03/21 10:50:53;;;;;;;14.45;10.73;;;;;;;12.87;58.29;103077.81;5053892;28;20033;-36
2022/03/21 10:53:27;;;;;;;15.77;10.32;;;;;;;13.06;58.14;103076.34;5053639;28;20045;-35
2022/03/21 10:56:00;;;;;;;15.98;10.63;;;;;;;13.14;56.71;103078.94;5054098;28;20357;-35
2022/03/21 10:58:44;;;;;;;13.57;10.48;;;;;;;13.31;57.36;103074.13;5053249;28;20113;-36
2022/03/21 11:01:24;;;;;;;16.67;10.95;;;;;;;13.30;56.16;103065.13;5052776;28;20132;-35
2022/03/21 11:03:56;;;;;;;13.40;10.40;;;;;;;13.50;56.48;103068.00;5053002;28;20025;-36
2022/03/21 11:06:22;;;;;;;14.45;10.02;;;;;;;13.55;55.32;103065.53;5053185;28;20036;-36
2022/03/21 11:08:51;;;;;;;14.90;11.50;;;;;;;13.67;55.43;103063.16;5052903;28;20024;-36
2022/03/21 11:11:17;;;;;;;15.48;10.43;;;;;;;13.72;56.08;103057.13;5052369;28;20523;-35
2022/03/21 11:13:43;;;;;;;12.80;9.98;;;;;;;13.77;55.08;103046.47;5052567;28;20037;-35
2022/03/21 11:16:09;;;;;;;;;;;;;;;14.01;55.38;103056.88;5053521;28;20628;-35
2022/03/21 11:18:34;;;;;;;13.80;9.88;;;;;;;13.99;53.75;103049.94;5053039;28;19956;-35
2022/03/21 11:21:01;;;;;;;13.68;10.85;;;;;;;14.13;53.36;103054.44;5053062;28;20033;-35
2022/03/21 11:23:26;;;;;;;;;;;;;;;14.27;56.91;103058.06;5052949;28;20021;-35
2022/03/21 11:26:01;;;;;;;13.63;10.48;;;;;;;14.20;53.39;103055.31;5053460;28;20372;-35
2022/03/21 11:28:39;;;;;;;15.07;11.35;;;;;;;14.30;53.42;103038.59;5052356;28;20036;-35
2022/03/21 11:31:12;;;;;;;13.90;10.38;;;;;;;14.47;53.91;103053.56;5052603;28;20034;-35
2022/03/21 11:33:56;;;;;;;15.38;10.68;;;;;;;14.36;52.38;103049.53;5052894;28;20090;-35
2022/03/21 11:36:23;;;;;;;12.85;10.48;;;;;;;14.50;53.46;103047.75;5052390;28;20029;-35
2022/03/21 11:38:49;;;;;;;15.18;11.27;;;;;;;14.61;53.21;103041.69;5052718;28;20021;-35